Time;durP1;ratioP1;P1;durP2;ratioP2;P2;SDS_P1;SDS_P2;PMS_P1;PMS_P2;Temp;Humidity;BMP_temperature;BMP_pressure;BME280_temperature;BME280_humidity;BME280_pressure;Samples;Min_cycle;Max_cycle;Signal;HPM_P1;HPM_P2
2023/05/08 00:01:19;;;;;;;;;;;;;;;14.12;100.00;101972.47;5020083;28;1198;-71
2023/05/08 00:03:44;;;;;;;;;;;;;;;14.11;100.00;101968.22;5016067;28;1225;-72
2023/05/08 00:06:10;;;;;;;;;;;;;;;14.10;100.00;101971.75;5013978;28;1242;-70
2023/05/08 00:08:35;;;;;;;;;;;;;;;14.10;100.00;101966.53;5018975;28;1576;-71
2023/05/08 00:11:00;;;;;;;;;;;;;;;14.08;100.00;101958.00;5022361;28;1184;-70
2023/05/08 00:13:25;;;;;;;;;;;;;;;14.09;100.00;101964.88;5020313;28;1438;-70
2023/05/08 00:15:51;;;;;;;;;;;;;;;14.09;100.00;101964.88;5020655;28;1914;-73
2023/05/08 00:18:16;;;;;;;;;;;;;;;14.10;100.00;101966.53;5024879;28;1232;-71
2023/05/08 00:20:41;;;;;;;;;;;;;;;14.09;100.00;101972.72;5015889;28;1358;-72
2023/05/08 00:23:06;;;;;;;;;;;;;;;14.07;100.00;101966.78;5023264;28;1125;-71
2023/05/08 00:25:32;;;;;;;;;;;;;;;14.05;100.00;101969.53;5028789;28;1462;-70
2023/05/08 00:27:57;;;;;;;;;;;;;;;14.03;100.00;101965.38;5025515;28;1510;-75
2023/05/08 00:30:24;;;;;;;;;;;;;;;14.02;100.00;101966.31;5038206;28;1557;-71
2023/05/08 00:32:49;;;;;;;;;;;;;;;14.02;100.00;101961.09;5024705;28;1195;-75
2023/05/08 00:35:14;;;;;;;;;;;;;;;14.01;100.00;101957.66;5023209;28;1914;-71
2023/05/08 00:37:40;;;;;;;;;;;;;;;14.01;100.00;101956.84;5018604;28;1324;-72
2023/05/08 00:40:06;;;;;;;;;;;;;;;13.99;100.00;101961.31;5021737;28;1281;-70
2023/05/08 00:42:32;;;;;;;;;;;;;;;13.99;100.00;101948.28;5035982;28;1295;-70
2023/05/08 00:44:57;;;;;;;;;;;;;;;14.00;100.00;101960.41;5024940;28;1529;-70
2023/05/08 00:47:22;;;;;;;;;;;;;;;13.99;100.00;101953.50;5023531;28;1232;-72
2023/05/08 00:49:47;;;;;;;;;;;;;;;13.99;100.00;101953.50;5021236;28;1193;-72
2023/05/08 00:52:13;;;;;;;;;;;;;;;13.98;100.00;101957.06;5020836;28;1300;-71
2023/05/08 00:54:38;;;;;;;;;;;;;;;13.97;100.00;101947.59;5023335;28;1943;-72
2023/05/08 00:57:06;;;;;;;;;;;;;;;13.96;100.00;101953.75;5010702;28;1080;-71
2023/05/08 00:59:32;;;;;;;;;;;;;;;13.93;100.00;101953.97;5024920;28;1152;-70
2023/05/08 01:01:59;;;;;;;;;;;;;;;13.91;100.00;101950.69;5023529;28;1290;-70
2023/05/08 01:04:25;;;;;;;;;;;;;;;13.90;100.00;101954.25;5028270;28;1102;-71
2023/05/08 01:06:50;;;;;;;;;;;;;;;13.89;100.00;101949.97;5018829;28;1153;-71
2023/05/08 01:09:15;;;;;;;;;;;;;;;13.88;100.00;101945.69;5018431;28;1029;-70
2023/05/08 01:12:07;;;;;;;;;;;;;;;13.88;100.00;101950.91;5020537;28;1126;-73
2023/05/08 01:14:50;;;;;;;;;;;;;;;13.86;100.00;101947.59;5039870;28;1894;-70
2023/05/08 01:17:35;;;;;;;;;;;;;;;13.84;100.00;101949.50;5025619;28;944;-72
2023/05/08 01:20:19;;;;;;;;;;;;;;;13.82;100.00;101947.03;5020860;28;1079;-70
2023/05/08 01:22:50;;;;;;;;;;;;;;;13.79;100.00;101948.06;5016210;28;1401;-71
2023/05/08 01:25:39;;;;;;;;;;;;;;;13.78;100.00;101951.63;5018033;28;1217;-72
2023/05/08 01:28:07;;;;;;;;;;;;;;;13.76;100.00;101958.75;5019069;28;1565;-71
2023/05/08 01:30:44;;;;;;;;;;;;;;;13.74;100.00;101958.03;5026901;28;1192;-71
2023/05/08 01:33:16;;;;;;;;;;;;;;;13.71;100.00;101950.44;5021193;28;1232;-70
2023/05/08 01:35:48;;;;;;;;;;;;;;;13.69;100.00;101957.53;5019332;28;1996;-70
2023/05/08 01:38:25;;;;;;;;;;;;;;;13.68;100.00;101961.09;5017624;28;1224;-73
2023/05/08 01:41:00;;;;;;;;;;;;;;;13.67;100.00;101959.44;5031309;28;1439;-70
2023/05/08 01:43:29;;;;;;;;;;;;;;;13.66;100.00;101960.41;5022162;28;1201;-70
2023/05/08 01:45:56;;;;;;;;;;;;;;;13.64;100.00;101964.88;5023940;28;1387;-71
2023/05/08 01:48:24;;;;;;;;;;;;;;;13.64;100.00;101957.06;5019393;28;1622;-71
2023/05/08 01:50:54;;;;;;;;;;;;;;;13.63;100.00;101958.00;5017922;28;1389;-71
2023/05/08 01:53:27;;;;;;;;;;;;;;;13.61;100.00;101954.69;5017141;28;1304;-70
2023/05/08 01:55:54;;;;;;;;;;;;;;;13.61;100.00;101959.09;5023992;28;1891;-71
2023/05/08 01:58:22;;;;;;;;;;;;;;;13.60;100.00;101958.25;5025137;28;1244;-69
2023/05/08 02:00:47;;;;;;;;;;;;;;;13.60;100.00;101957.44;5019309;28;1541;-71
2023/05/08 02:03:14;;;;;;;;;;;;;;;13.60;100.00;101963.47;5024152;28;1149;-70
2023/05/08 02:05:41;;;;;;;;;;;;;;;13.57;100.00;101968.91;5018498;28;987;-71
2023/05/08 02:08:08;;;;;;;;;;;;;;;13.57;100.00;101968.91;5016085;28;1269;-73
2023/05/08 02:10:34;;;;;;;;;;;;;;;13.57;100.00;101961.09;5021002;28;1514;-69
2023/05/08 02:13:01;;;;;;;;;;;;;;;13.57;100.00;101968.91;5016578;28;1500;-73
2023/05/08 02:15:27;;;;;;;;;;;;;;;13.59;100.00;101966.19;5023827;28;1882;-71
2023/05/08 02:17:53;;;;;;;;;;;;;;;13.58;100.00;101965.34;5015686;28;1133;-72
2023/05/08 02:20:19;;;;;;;;;;;;;;;13.59;100.00;101953.16;5015047;28;1371;-69
2023/05/08 02:22:44;;;;;;;;;;;;;;;13.59;100.00;101959.22;5020013;28;1929;-71
2023/05/08 02:25:13;;;;;;;;;;;;;;;13.58;100.00;101970.56;5018882;28;1350;-72
2023/05/08 02:27:38;;;;;;;;;;;;;;;13.58;100.00;101967.94;5022055;28;1169;-70
2023/05/08 02:30:05;;;;;;;;;;;;;;;13.58;100.00;101967.94;5014558;28;1132;-71
2023/05/08 02:32:31;;;;;;;;;;;;;;;13.58;100.00;101962.75;5014809;28;1332;-71
2023/05/08 02:34:56;;;;;;;;;;;;;;;13.57;100.00;101974.13;5021448;28;1959;-69
2023/05/08 02:37:22;;;;;;;;;;;;;;;13.57;100.00;101962.88;5022403;28;1277;-69
2023/05/08 02:39:48;;;;;;;;;;;;;;;13.57;100.00;101968.06;5016871;28;1102;-70
2023/05/08 02:42:14;;;;;;;;;;;;;;;13.57;100.00;101968.91;5020113;28;1251;-72
2023/05/08 02:44:39;;;;;;;;;;;;;;;13.58;100.00;101969.72;5023266;28;1300;-71
2023/05/08 02:47:17;;;;;;;;;;;;;;;13.58;100.00;101969.72;5016875;28;1443;-73
2023/05/08 02:49:42;;;;;;;;;;;;;;;13.58;100.00;101970.56;5024037;28;1176;-72
2023/05/08 02:52:26;;;;;;;;;;;;;;;13.58;100.00;101962.75;5022801;28;1354;-71
2023/05/08 02:54:57;;;;;;;;;;;;;;;13.57;100.00;101966.31;5027714;28;1890;-71
2023/05/08 02:57:29;;;;;;;;;;;;;;;13.57;100.00;101968.06;5024437;28;1279;-70
2023/05/08 03:00:05;;;;;;;;;;;;;;;13.55;100.00;101979.47;5015324;28;1062;-70
2023/05/08 03:02:41;;;;;;;;;;;;;;;13.55;100.00;101976.03;5011164;28;1258;-70
2023/05/08 03:05:13;;;;;;;;;;;;;;;13.55;100.00;101976.03;5014132;28;1157;-71
2023/05/08 03:07:40;;;;;;;;;;;;;;;13.53;100.00;101975.28;5024015;28;1438;-71
2023/05/08 03:10:09;;;;;;;;;;;;;;;13.51;100.00;101985.00;5015724;28;1149;-70
2023/05/08 03:12:37;;;;;;;;;;;;;;;13.50;100.00;101983.34;5023159;28;1135;-70
2023/05/08 03:15:24;;;;;;;;;;;;;;;13.50;100.00;101978.97;5021376;28;1961;-70
2023/05/08 03:17:52;;;;;;;;;;;;;;;13.51;100.00;101979.81;5019415;28;1153;-70
2023/05/08 03:20:18;;;;;;;;;;;;;;;13.47;100.00;101973.16;5020388;28;1504;-74
2023/05/08 03:22:45;;;;;;;;;;;;;;;13.48;100.00;101969.63;5020322;28;1252;-72
2023/05/08 03:25:12;;;;;;;;;;;;;;;13.49;100.00;101966.06;5021690;28;1201;-70
2023/05/08 03:27:38;;;;;;;;;;;;;;;13.49;100.00;101971.28;5017763;28;1293;-71
2023/05/08 03:30:05;;;;;;;;;;;;;;;13.48;100.00;101974.84;5018309;28;1120;-70
2023/05/08 03:32:31;;;;;;;;;;;;;;;13.46;100.00;101974.09;5015246;28;1163;-70
2023/05/08 03:34:57;;;;;;;;;;;;;;;13.47;100.00;101967.94;5042118;28;1886;-70
2023/05/08 03:37:23;;;;;;;;;;;;;;;13.46;100.00;101961.06;5016949;28;1209;-71
2023/05/08 03:39:49;;;;;;;;;;;;;;;13.47;100.00;101960.13;5034352;28;1177;-70
2023/05/08 03:42:20;;;;;;;;;;;;;;;13.46;100.00;101961.06;5021459;28;1249;-70
2023/05/08 03:44:47;;;;;;;;;;;;;;;13.44;100.00;101958.59;5022001;28;1205;-70
2023/05/08 03:47:12;;;;;;;;;;;;;;;13.43;100.00;101956.09;5015587;28;1297;-73
2023/05/08 03:49:38;;;;;;;;;;;;;;;13.42;100.00;101954.41;5022364;28;1209;-69
2023/05/08 03:52:03;;;;;;;;;;;;;;;13.41;100.00;101952.75;5021894;28;1210;-70
2023/05/08 03:54:29;;;;;;;;;;;;;;;13.40;100.00;101956.31;5018800;28;1943;-71
2023/05/08 03:56:54;;;;;;;;;;;;;;;13.40;100.00;101961.53;5025782;28;1226;-71
2023/05/08 03:59:36;;;;;;;;;;;;;;;13.39;100.00;101965.09;5019283;28;1511;-71
2023/05/08 04:02:16;;;;;;;;;;;;;;;13.37;100.00;101964.38;5021406;28;1240;-70
2023/05/08 04:04:42;;;;;;;;;;;;;;;13.36;100.00;101960.09;5024662;28;1455;-72
2023/05/08 04:07:14;;;;;;;;;;;;;;;13.32;100.00;101959.50;5021332;28;1232;-70
2023/05/08 04:09:50;;;;;;;;;;;;;;;13.31;100.00;101957.03;5023486;28;1283;-72
2023/05/08 04:12:15;;;;;;;;;;;;;;;13.27;100.00;101957.25;5022137;28;1201;-71
2023/05/08 04:15:07;;;;;;;;;;;;;;;13.25;100.00;101959.16;5019694;28;1964;-70
2023/05/08 04:17:48;;;;;;;;;;;;;;;13.22;100.00;101954.16;5018645;28;1185;-71
2023/05/08 04:20:15;;;;;;;;;;;;;;;13.22;100.00;101959.38;5022559;28;1108;-70
2023/05/08 04:22:41;;;;;;;;;;;;;;;13.19;100.00;101959.56;5015414;28;1208;-73
2023/05/08 04:25:07;;;;;;;;;;;;;;;13.18;100.00;101968.31;5023979;28;1144;-71
2023/05/08 04:27:33;;;;;;;;;;;;;;;13.15;100.00;101963.34;5024268;28;1479;-69
2023/05/08 04:29:59;;;;;;;;;;;;;;;13.13;100.00;101965.25;5026015;28;1530;-70
2023/05/08 04:32:26;;;;;;;;;;;;;;;13.12;100.00;101968.78;5021530;28;1232;-72
2023/05/08 04:34:51;;;;;;;;;;;;;;;13.11;100.00;101972.31;5019600;28;1894;-69
2023/05/08 04:37:24;;;;;;;;;;;;;;;13.08;100.00;101967.34;5023955;28;1530;-70
2023/05/08 04:39:50;;;;;;;;;;;;;;;13.06;100.00;101971.00;5013151;28;1035;-70
2023/05/08 04:42:15;;;;;;;;;;;;;;;13.02;100.00;101973.03;5024459;28;1358;-69
2023/05/08 04:44:40;;;;;;;;;;;;;;;13.01;100.00;101971.34;5022655;28;1067;-71
2023/05/08 04:47:05;;;;;;;;;;;;;;;13.01;100.00;101981.75;5025911;28;1569;-70
2023/05/08 04:49:30;;;;;;;;;;;;;;;13.00;100.00;101974.88;5027050;28;1539;-68
2023/05/08 04:51:56;;;;;;;;;;;;;;;12.99;100.00;101968.03;5016297;28;1968;-69
2023/05/08 04:54:21;;;;;;;;;;;;;;;12.97;100.00;101980.34;5027041;28;1953;-70
2023/05/08 04:56:46;;;;;;;;;;;;;;;12.95;100.00;101982.19;5024317;28;1185;-68
2023/05/08 04:59:12;;;;;;;;;;;;;;;12.95;100.00;101987.41;5024409;28;1562;-69
2023/05/08 05:01:37;;;;;;;;;;;;;;;12.95;100.00;101987.41;5023331;28;1213;-70
2023/05/08 05:04:02;;;;;;;;;;;;;;;12.95;100.00;101988.25;5020253;28;974;-71
2023/05/08 05:06:27;;;;;;;;;;;;;;;12.98;100.00;101997.63;5023994;28;1120;-69
2023/05/08 05:08:52;;;;;;;;;;;;;;;12.98;100.00;101992.41;5018171;28;1289;-68
2023/05/08 05:11:18;;;;;;;;;;;;;;;13.00;100.00;101993.13;5024259;28;1291;-70
2023/05/08 05:13:43;;;;;;;;;;;;;;;13.02;100.00;101991.25;5021578;28;1518;-70
2023/05/08 05:16:08;;;;;;;;;;;;;;;13.04;100.00;101991.97;5021328;28;1976;-73
2023/05/08 05:18:33;;;;;;;;;;;;;;;13.08;100.00;102001.22;5020219;28;1050;-71
2023/05/08 05:20:58;;;;;;;;;;;;;;;13.10;100.00;102007.13;5027375;28;1085;-73
2023/05/08 05:23:24;;;;;;;;;;;;;;;13.13;100.00;102001.72;5015847;28;1079;-72
2023/05/08 05:25:49;;;;;;;;;;;;;;;13.15;100.00;102015.44;5028625;28;1241;-69
2023/05/08 05:28:14;;;;;;;;;;;;;;;13.16;100.00;102017.09;5043888;28;1310;-70
2023/05/08 05:30:39;;;;;;;;;;;;;;;13.19;100.00;102024.72;5026278;28;1241;-70
2023/05/08 05:33:05;;;;;;;;;;;;;;;13.21;100.00;102024.63;5021245;28;1178;-72
2023/05/08 05:35:30;;;;;;;;;;;;;;;13.28;100.00;102021.44;5023247;28;1948;-70
2023/05/08 05:37:55;;;;;;;;;;;;;;;13.27;100.00;102022.38;5016262;28;1336;-70
2023/05/08 05:40:20;;;;;;;;;;;;;;;13.30;100.00;102034.34;5022675;28;1235;-70
2023/05/08 05:42:49;;;;;;;;;;;;;;;13.32;100.00;102037.69;5025828;28;1268;-72
2023/05/08 05:45:14;;;;;;;;;;;;;;;13.37;100.00;102032.13;5020671;28;1586;-71
2023/05/08 05:47:43;;;;;;;;;;;;;;;13.42;100.00;102043.03;5014900;28;1155;-71
2023/05/08 05:50:09;;;;;;;;;;;;;;;13.44;100.00;102035.94;5017996;28;1265;-71
2023/05/08 05:52:34;;;;;;;;;;;;;;;13.49;100.00;102039.03;5016156;28;1196;-73
2023/05/08 05:54:59;;;;;;;;;;;;;;;13.52;100.00;102044.00;5025642;28;1893;-73
2023/05/08 05:57:24;;;;;;;;;;;;;;;13.55;100.00;102039.41;5021794;28;1208;-70
2023/05/08 05:59:49;;;;;;;;;;;;;;;13.59;100.00;102034.81;5018471;28;1344;-71
2023/05/08 06:02:17;;;;;;;;;;;;;;;13.60;100.00;102031.25;5024220;28;1313;-71
2023/05/08 06:04:42;;;;;;;;;;;;;;;13.66;100.00;102030.78;5022479;28;1217;-72
2023/05/08 06:07:07;;;;;;;;;;;;;;;13.69;100.00;102030.53;5016743;28;1212;-71
2023/05/08 06:09:32;;;;;;;;;;;;;;;13.73;100.00;102037.19;5023800;28;1113;-74
2023/05/08 06:11:58;;;;;;;;;;;;;;;13.74;100.00;102038.84;5018593;28;1050;-70
2023/05/08 06:14:23;;;;;;;;;;;;;;;13.77;100.00;102038.63;5021640;28;2197;-73
2023/05/08 06:16:48;;;;;;;;;;;;;;;13.80;100.00;102033.16;5022611;28;1120;-71
2023/05/08 06:19:13;;;;;;;;;;;;;;;13.85;100.00;102037.22;5021807;28;1399;-72
2023/05/08 06:21:39;;;;;;;;;;;;;;;13.88;100.00;102044.78;5018192;28;1085;-73
2023/05/08 06:24:05;;;;;;;;;;;;;;;13.92;100.00;102033.19;5023811;28;1420;-71
2023/05/08 06:26:30;;;;;;;;;;;;;;;13.97;100.00;102038.88;5014351;28;1475;-71
2023/05/08 06:28:55;;;;;;;;;;;;;;;14.01;100.00;102032.50;5019254;28;1404;-72
2023/05/08 06:31:21;;;;;;;;;;;;;;;14.05;100.00;102032.16;5027799;28;1335;-71
2023/05/08 06:33:46;;;;;;;;;;;;;;;14.11;100.00;102030.84;5026066;28;1331;-72
2023/05/08 06:36:11;;;;;;;;;;;;;;;14.16;100.00;102033.06;5021475;28;1906;-70
2023/05/08 06:38:36;;;;;;;;;;;;;;;14.20;100.00;102027.50;5025447;28;1240;-72
2023/05/08 06:41:02;;;;;;;;;;;;;;;14.25;100.00;102032.38;5019708;28;1365;-70
2023/05/08 06:43:27;;;;;;;;;;;;;;;14.28;100.00;102038.19;5018791;28;1269;-70
2023/05/08 06:45:52;;;;;;;;;;;;;;;14.32;100.00;102034.38;5023510;28;1283;-74
2023/05/08 06:48:17;;;;;;;;;;;;;;;14.36;100.00;102029.75;5020186;28;1518;-70
2023/05/08 06:50:43;;;;;;;;;;;;;;;14.41;100.00;102042.44;5013968;28;1282;-72
2023/05/08 06:53:08;;;;;;;;;;;;;;;14.43;100.00;102040.53;5018765;28;1081;-77
2023/05/08 06:55:33;;;;;;;;;;;;;;;14.47;100.00;102044.59;5022368;28;1969;-71
2023/05/08 06:57:58;;;;;;;;;;;;;;;14.52;100.00;102039.84;5019908;28;1070;-70
2023/05/08 07:00:24;;;;;;;;;;;;;;;14.55;100.00;102047.44;5017795;28;1126;-71
2023/05/08 07:02:49;;;;;;;;;;;;;;;14.59;100.00;102035.81;5019041;28;1175;-73
2023/05/08 07:05:14;;;;;;;;;;;;;;;14.64;100.00;102038.88;5018124;28;1071;-70
2023/05/08 07:07:41;;;;;;;;;;;;;;;14.70;100.00;102033.16;5022218;28;1042;-72
2023/05/08 07:10:06;;;;;;;;;;;;;;;14.75;100.00;102041.47;5024262;28;979;-72
2023/05/08 07:12:32;;;;;;;;;;;;;;;14.78;100.00;102049.03;5024364;28;1085;-75
2023/05/08 07:14:57;;;;;;;;;;;;;;;14.82;100.00;102057.47;5018468;28;1910;-71
2023/05/08 07:17:22;;;;;;;;;;;;;;;14.84;100.00;102051.16;5022470;28;1073;-71
2023/05/08 07:19:51;;;;;;;;;;;;;;;14.87;100.00;102045.69;5031891;28;1405;-72
2023/05/08 07:22:16;;;;;;;;;;;;;;;14.91;100.00;102056.75;5018204;28;1327;-74
2023/05/08 07:24:41;;;;;;;;;;;;;;;14.92;100.00;102062.81;5011849;28;1265;-71
2023/05/08 07:27:07;;;;;;;;;;;;;;;14.92;100.00;102057.56;5037490;28;1372;-73
2023/05/08 07:29:32;;;;;;;;;;;;;;;14.93;100.00;102064.44;5012596;28;1347;-75
2023/05/08 07:31:57;;;;;;;;;;;;;;;14.91;100.00;102061.13;5027538;28;1118;-72
2023/05/08 07:34:23;;;;;;;;;;;;;;;14.91;100.00;102061.13;5020620;28;1964;-72
2023/05/08 07:36:48;;;;;;;;;;;;;;;14.91;100.00;102056.75;5019100;28;1081;-72
2023/05/08 07:39:13;;;;;;;;;;;;;;;14.92;100.00;102062.81;5026728;28;1089;-71
2023/05/08 07:41:39;;;;;;;;;;;;;;;14.91;100.00;102055.88;5022774;28;1209;-70
2023/05/08 07:44:04;;;;;;;;;;;;;;;14.92;100.00;102062.81;5020862;28;1328;-72
2023/05/08 07:46:30;;;;;;;;;;;;;;;14.91;100.00;102056.75;5026899;28;1151;-70
2023/05/08 07:48:55;;;;;;;;;;;;;;;14.92;100.00;102052.34;5025230;28;1100;-72
2023/05/08 07:51:20;;;;;;;;;;;;;;;14.92;100.00;102052.34;5021006;28;1104;-71
2023/05/08 07:53:47;;;;;;;;;;;;;;;14.95;100.00;102065.16;5014626;28;1074;-71
2023/05/08 07:56:12;;;;;;;;;;;;;;;14.96;100.00;102053.75;5024674;28;2404;-71
2023/05/08 07:58:38;;;;;;;;;;;;;;;15.00;100.00;102052.56;5020951;28;983;-72
2023/05/08 08:01:03;;;;;;;;;;;;;;;15.01;100.00;102052.41;5019210;28;1116;-71
2023/05/08 08:03:28;;;;;;;;;;;;;;;15.00;100.00;102061.22;5020067;28;1154;-72
2023/05/08 08:05:54;;;;;;;;;;;;;;;15.01;100.00;102056.81;5017770;28;1117;-73
2023/05/08 08:08:19;;;;;;;;;;;;;;;15.03;100.00;102060.16;5021778;28;1160;-72
2023/05/08 08:10:44;;;;;;;;;;;;;;;15.05;100.00;102053.84;5021492;28;1005;-72
2023/05/08 08:13:10;;;;;;;;;;;;;;;15.06;100.00;102059.88;5020516;28;1290;-72
2023/05/08 08:15:35;;;;;;;;;;;;;;;15.08;100.00;102063.19;5024379;28;1907;-72
2023/05/08 08:18:00;;;;;;;;;;;;;;;15.07;100.00;102061.53;5020733;28;938;-72
2023/05/08 08:20:26;;;;;;;;;;;;;;;15.06;100.00;102065.13;5025948;28;1435;-72
2023/05/08 08:22:51;;;;;;;;;;;;;;;15.06;100.00;102060.72;5017688;28;1147;-70
2023/05/08 08:25:16;;;;;;;;;;;;;;;15.06;100.00;102055.50;5017710;28;1202;-72
2023/05/08 08:27:42;;;;;;;;;;;;;;;15.09;100.00;102049.22;5015911;28;1213;-72
2023/05/08 08:30:07;;;;;;;;;;;;;;;15.14;100.00;102062.72;5016960;28;1292;-71
2023/05/08 08:32:32;;;;;;;;;;;;;;;15.16;100.00;102054.75;5023367;28;1648;-71
2023/05/08 08:34:57;;;;;;;;;;;;;;;15.20;100.00;102057.00;5021435;28;1898;-74
2023/05/08 08:37:25;;;;;;;;;;;;;;;15.26;100.00;102061.72;5022595;28;1193;-71
2023/05/08 08:39:50;;;;;;;;;;;;;;;15.25;100.00;102054.81;5027432;28;1237;-72
2023/05/08 08:42:15;;;;;;;;;;;;;;;15.28;100.00;102053.75;5019971;28;1126;-71
2023/05/08 08:44:41;;;;;;;;;;;;;;;15.31;100.00;102038.66;5025064;28;1217;-71
2023/05/08 08:47:09;;;;;;;;;;;;;;;15.35;100.00;102042.66;5022002;28;1550;-71
2023/05/08 08:49:35;;;;;;;;;;;;;;;15.36;100.00;102046.91;5020470;28;1273;-71
2023/05/08 08:52:02;;;;;;;;;;;;;;;15.40;100.00;102043.09;5023598;28;1401;-72
2023/05/08 08:54:28;;;;;;;;;;;;;;;15.46;100.00;102038.34;5019782;28;1886;-71
2023/05/08 08:56:54;;;;;;;;;;;;;;;15.50;100.00;102042.34;5019628;28;1485;-74
2023/05/08 08:59:22;;;;;;;;;;;;;;;15.52;100.00;102045.66;5025601;28;1104;-71
2023/05/08 09:01:50;;;;;;;;;;;;;;;15.57;100.00;102043.50;5018380;28;1148;-70
2023/05/08 09:04:15;;;;;;;;;;;;;;;15.64;100.00;102039.44;5023270;28;1089;-71
2023/05/08 09:06:41;;;;;;;;;;;;;;;15.68;100.00;102040.84;5018582;28;1098;-72
2023/05/08 09:09:06;;;;;;;;;;;;;;;15.74;100.00;102045.56;5025750;28;1191;-71
2023/05/08 09:11:31;;;;;;;;;;;;;;;15.80;100.00;102050.28;5024240;28;1251;-74
2023/05/08 09:13:57;;;;;;;;;;;;;;;15.84;100.00;102050.84;5020166;28;1078;-71
2023/05/08 09:16:23;;;;;;;;;;;;;;;15.86;100.00;102044.53;5021657;28;1878;-72
2023/05/08 09:18:48;;;;;;;;;;;;;;;15.86;100.00;102047.13;5018359;28;1053;-72
2023/05/08 09:21:13;;;;;;;;;;;;;;;15.86;100.00;102049.75;5018269;28;1049;-75
2023/05/08 09:23:57;;;;;;;;;;;;;;;15.92;100.00;102059.69;5019674;28;1307;-72
2023/05/08 09:26:26;;;;;;;;;;;;;;;15.96;100.00;102055.06;5019993;28;1480;-71
2023/05/08 09:29:06;;;;;;;;;;;;;;;16.01;100.00;102057.28;5025883;28;1178;-71
2023/05/08 09:31:35;;;;;;;;;;;;;;;16.08;100.00;102055.78;5020958;28;1329;-71
2023/05/08 09:34:00;;;;;;;;;;;;;;;16.18;100.00;102049.66;5023889;28;1282;-74
2023/05/08 09:36:27;;;;;;;;;;;;;;;16.29;100.00;102061.00;5019213;28;1890;-72
2023/05/08 09:38:52;;;;;;;;;;;;;;;16.35;100.00;102058.66;5026825;28;1567;-73
2023/05/08 09:41:18;;;;;;;;;;;;;;;16.45;100.00;102051.66;5020320;28;1189;-73
2023/05/08 09:43:45;;;;;;;;;;;;;;;16.58;100.00;102061.06;5023041;28;1229;-72
2023/05/08 09:46:21;;;;;;;;;;;;;;;16.65;100.00;102056.94;5022301;28;1543;-71
2023/05/08 09:48:46;;;;;;;;;;;;;;;16.77;100.00;102061.13;5015253;28;1256;-72
2023/05/08 09:51:11;;;;;;;;;;;;;;;16.86;100.00;102049.84;5031469;28;2009;-71
2023/05/08 09:53:36;;;;;;;;;;;;;;;16.98;100.00;102059.25;5021595;28;1200;-71
2023/05/08 09:56:02;;;;;;;;;;;;;;;17.11;100.00;102058.13;5019188;28;1957;-72
2023/05/08 09:58:36;;;;;;;;;;;;;;;17.16;100.00;102061.19;5021265;28;1050;-71
2023/05/08 10:01:02;;;;;;;;;;;;;;;17.20;100.00;102062.53;5020269;28;1227;-71
2023/05/08 10:03:45;;;;;;;;;;;;;;;17.23;100.00;102052.63;5015434;28;1265;-72
2023/05/08 10:06:11;;;;;;;;;;;;;;;17.30;100.00;102063.38;5022053;28;1483;-71
2023/05/08 10:08:36;;;;;;;;;;;;;;;17.38;100.00;102055.66;5015310;28;1240;-72
2023/05/08 10:11:18;;;;;;;;;;;;;;;17.32;100.00;102066.69;5026040;28;1260;-72
2023/05/08 10:13:43;;;;;;;;;;;;;;;17.36;100.00;102062.00;5017940;28;1150;-71
2023/05/08 10:16:19;;;;;;;;;;;;;;;17.35;100.00;102063.78;5012959;28;1898;-71
2023/05/08 10:18:46;;;;;;;;;;;;;;;17.34;100.00;102064.75;5021483;28;1280;-72
2023/05/08 10:21:12;;;;;;;;;;;;;;;17.37;100.00;102059.22;5014398;28;926;-71
2023/05/08 10:23:38;;;;;;;;;;;;;;;17.37;100.00;102064.47;5020226;28;1378;-74
2023/05/08 10:26:10;;;;;;;;;;;;;;;17.41;100.00;102057.97;5024341;28;1284;-72
2023/05/08 10:28:39;;;;;;;;;;;;;;;17.44;100.00;102062.97;5016385;28;1225;-71
2023/05/08 10:31:06;;;;;;;;;;;;;;;17.44;100.00;102065.59;5021823;28;1475;-73
2023/05/08 10:33:32;;;;;;;;;;;;;;;17.40;100.00;102056.34;5026319;28;1216;-71
2023/05/08 10:35:59;;;;;;;;;;;;;;;17.44;100.00;102057.72;5018672;28;1906;-71
2023/05/08 10:38:24;;;;;;;;;;;;;;;17.53;100.00;102056.84;5024697;28;1250;-72
2023/05/08 10:40:52;;;;;;;;;;;;;;;17.61;100.00;102055.34;5018399;28;1534;-71
2023/05/08 10:43:18;;;;;;;;;;;;;;;17.64;100.00;102057.69;5015302;28;1098;-74
2023/05/08 10:45:44;;;;;;;;;;;;;;;17.62;99.77;102057.00;5021396;28;1205;-74
2023/05/08 10:48:26;;;;;;;;;;;;;;;17.67;99.33;102060.03;5024929;28;1146;-72
2023/05/08 10:50:55;;;;;;;;;;;;;;;17.66;99.27;102066.22;5019465;28;1539;-71
2023/05/08 10:53:20;;;;;;;;;;;;;;;17.66;98.96;102059.22;5024228;28;1549;-71
2023/05/08 10:55:48;;;;;;;;;;;;;;;17.69;98.39;102058.09;5021797;28;1902;-72
2023/05/08 10:58:14;;;;;;;;;;;;;;;17.68;98.34;102051.19;5028805;28;1203;-73
2023/05/08 11:00:52;;;;;;;;;;;;;;;17.66;98.20;102058.34;5015454;28;1100;-71
2023/05/08 11:03:17;;;;;;;;;;;;;;;17.70;98.82;102060.56;5017221;28;986;-71
2023/05/08 11:05:46;;;;;;;;;;;;;;;17.76;98.82;102054.78;5022124;28;1089;-72
2023/05/08 11:08:15;;;;;;;;;;;;;;;17.94;96.67;102052.22;5016229;28;907;-71
2023/05/08 11:10:42;;;;;;;;;;;;;;;17.84;97.87;102051.44;5023580;28;1098;-71
2023/05/08 11:13:07;;;;;;;;;;;;;;;17.90;96.81;102050.88;5018033;28;1049;-73
2023/05/08 11:15:40;;;;;;;;;;;;;;;17.90;97.62;102042.19;5017221;28;1902;-74
2023/05/08 11:18:07;;;;;;;;;;;;;;;17.99;97.63;102044.75;5020681;28;1073;-71
2023/05/08 11:20:40;;;;;;;;;;;;;;;18.09;97.57;102044.72;5021492;28;1151;-71
2023/05/08 11:23:31;;;;;;;;;;;;;;;18.25;96.11;102038.84;5021095;28;1192;-74
2023/05/08 11:26:03;;;;;;;;;;;;;;;18.27;96.52;102036.91;5016458;28;1272;-73
2023/05/08 11:28:47;;;;;;;;;;;;;;;18.30;95.57;102036.63;5021944;28;1298;-71
2023/05/08 11:31:13;;;;;;;;;;;;;;;18.37;95.93;102027.19;5020911;28;1349;-71
2023/05/08 11:33:39;;;;;;;;;;;;;;;18.40;95.34;102032.13;5018707;28;1554;-72
2023/05/08 11:36:12;;;;;;;;;;;;;;;18.40;94.53;102026.88;5018373;28;1956;-73
2023/05/08 11:38:38;;;;;;;;;;;;;;;18.41;95.19;102022.44;5018399;28;1249;-73
2023/05/08 11:41:03;;;;;;;;;;;;;;;18.46;95.17;102021.03;5016350;28;1292;-71
2023/05/08 11:43:31;;;;;;;;;;;;;;;18.54;94.67;102023.75;5012986;28;1221;-72
2023/05/08 11:45:59;;;;;;;;;;;;;;;18.56;94.88;102016.53;5018347;28;1233;-74
2023/05/08 11:48:24;;;;;;;;;;;;;;;18.62;94.05;102030.06;5019884;28;1275;-72
2023/05/08 11:50:50;;;;;;;;;;;;;;;18.61;93.84;102012.66;5036117;28;1282;-72
2023/05/08 11:53:15;;;;;;;;;;;;;;;18.69;93.41;102010.13;5035080;28;1467;-72
2023/05/08 11:55:40;;;;;;;;;;;;;;;18.74;93.74;102013.13;5009973;28;1906;-74
2023/05/08 11:58:12;;;;;;;;;;;;;;;18.85;93.65;102007.66;5024786;28;1197;-72
2023/05/08 12:00:43;;;;;;;;;;;;;;;18.95;93.59;102011.03;5016145;28;1277;-73
2023/05/08 12:03:10;;;;;;;;;;;;;;;19.02;93.13;102006.81;5020641;28;1479;-72
2023/05/08 12:05:36;;;;;;;;;;;;;;;19.15;93.22;102000.34;5018972;28;1137;-72
2023/05/08 12:08:03;;;;;;;;;;;;;;;19.27;93.55;102004.41;5020232;28;1255;-74
2023/05/08 12:10:28;;;;;;;;;;;;;;;19.38;92.93;102012.03;5024423;28;1542;-73
2023/05/08 12:12:53;;;;;;;;;;;;;;;19.46;93.12;102008.63;5020077;28;1232;-73
2023/05/08 12:15:18;;;;;;;;;;;;;;;19.55;93.01;102012.94;5019979;28;1898;-73
2023/05/08 12:17:43;;;;;;;;;;;;;;;19.61;92.45;102018.47;5019101;28;1540;-73
2023/05/08 12:20:09;;;;;;;;;;;;;;;19.61;91.42;102013.22;5022594;28;1196;-72
2023/05/08 12:22:35;;;;;;;;;;;;;;;19.58;90.80;102004.75;5036160;28;1203;-72
2023/05/08 12:25:02;;;;;;;;;;;;;;;19.59;90.76;102012.53;5024335;28;1216;-72
2023/05/08 12:27:27;;;;;;;;;;;;;;;19.61;90.41;102005.31;5030361;28;1128;-73
2023/05/08 12:29:52;;;;;;;;;;;;;;;19.63;90.78;102011.25;5021327;28;1354;-73
2023/05/08 12:32:17;;;;;;;;;;;;;;;19.82;87.46;102014.63;5011097;28;1257;-73
2023/05/08 12:34:43;;;;;;;;;;;;;;;19.68;88.38;102013.41;5014330;28;1914;-73
2023/05/08 12:37:08;;;;;;;;;;;;;;;19.62;88.42;102012.22;5015802;28;1579;-72
2023/05/08 12:39:33;;;;;;;;;;;;;;;19.74;86.67;102006.69;5018007;28;1468;-73